sensor_id;sensor_type;location;lat;lon;timestamp;temperature;humidity
23335;DHT22;11839;48.598;8.870;2023-12-22T00:01:54;8.10;99.90
23335;DHT22;11839;48.598;8.870;2023-12-22T00:04:20;8.10;99.90
23335;DHT22;11839;48.598;8.870;2023-12-22T00:06:47;8.10;99.90
23335;DHT22;11839;48.598;8.870;2023-12-22T00:09:14;8.10;99.90
23335;DHT22;11839;48.598;8.870;2023-12-22T00:11:42;8.20;99.90
23335;DHT22;11839;48.598;8.870;2023-12-22T00:14:09;8.30;99.90
23335;DHT22;11839;48.598;8.870;2023-12-22T00:16:36;8.40;99.90
23335;DHT22;11839;48.598;8.870;2023-12-22T00:19:03;8.40;99.90
23335;DHT22;11839;48.598;8.870;2023-12-22T00:21:30;8.40;99.90
23335;DHT22;11839;48.598;8.870;2023-12-22T00:23:57;8.50;99.90
23335;DHT22;11839;48.598;8.870;2023-12-22T00:26:24;8.60;99.90
23335;DHT22;11839;48.598;8.870;2023-12-22T00:28:52;8.60;99.90
23335;DHT22;11839;48.598;8.870;2023-12-22T00:31:19;8.60;99.90
23335;DHT22;11839;48.598;8.870;2023-12-22T00:33:46;8.70;99.90
23335;DHT22;11839;48.598;8.870;2023-12-22T00:36:13;8.70;99.90
23335;DHT22;11839;48.598;8.870;2023-12-22T00:38:39;8.80;99.90
23335;DHT22;11839;48.598;8.870;2023-12-22T00:41:06;8.80;99.90
23335;DHT22;11839;48.598;8.870;2023-12-22T00:43:33;8.60;99.90
23335;DHT22;11839;48.598;8.870;2023-12-22T00:46:01;8.60;99.90
23335;DHT22;11839;48.598;8.870;2023-12-22T00:48:28;8.70;99.90
23335;DHT22;11839;48.598;8.870;2023-12-22T00:50:55;8.70;99.90
23335;DHT22;11839;48.598;8.870;2023-12-22T00:53:21;8.70;99.90
23335;DHT22;11839;48.598;8.870;2023-12-22T00:55:48;8.80;99.90
23335;DHT22;11839;48.598;8.870;2023-12-22T00:58:15;8.70;99.90
23335;DHT22;11839;48.598;8.870;2023-12-22T01:00:42;8.60;99.90
23335;DHT22;11839;48.598;8.870;2023-12-22T01:03:10;8.70;99.90
23335;DHT22;11839;48.598;8.870;2023-12-22T01:05:37;8.70;99.90
23335;DHT22;11839;48.598;8.870;2023-12-22T01:08:04;8.30;99.90
23335;DHT22;11839;48.598;8.870;2023-12-22T01:10:31;7.90;99.90
23335;DHT22;11839;48.598;8.870;2023-12-22T01:12:58;7.50;99.90
23335;DHT22;11839;48.598;8.870;2023-12-22T01:15:25;7.40;99.90
23335;DHT22;11839;48.598;8.870;2023-12-22T01:17:51;7.40;99.90
23335;DHT22;11839;48.598;8.870;2023-12-22T01:20:20;7.30;99.90
23335;DHT22;11839;48.598;8.870;2023-12-22T01:22:46;7.30;99.90
23335;DHT22;11839;48.598;8.870;2023-12-22T01:25:13;7.40;99.90
23335;DHT22;11839;48.598;8.870;2023-12-22T01:27:40;7.70;99.90
23335;DHT22;11839;48.598;8.870;2023-12-22T01:30:08;7.50;99.90
23335;DHT22;11839;48.598;8.870;2023-12-22T01:32:34;7.50;99.90
23335;DHT22;11839;48.598;8.870;2023-12-22T01:35:02;7.50;99.90
23335;DHT22;11839;48.598;8.870;2023-12-22T01:37:36;7.30;99.90
23335;DHT22;11839;48.598;8.870;2023-12-22T01:40:05;7.10;99.90
23335;DHT22;11839;48.598;8.870;2023-12-22T01:42:32;7.10;99.90
23335;DHT22;11839;48.598;8.870;2023-12-22T01:44:59;7.20;99.90
23335;DHT22;11839;48.598;8.870;2023-12-22T01:47:25;7.10;99.90
23335;DHT22;11839;48.598;8.870;2023-12-22T01:49:54;7.20;99.90
23335;DHT22;11839;48.598;8.870;2023-12-22T01:52:22;7.50;99.90
23335;DHT22;11839;48.598;8.870;2023-12-22T01:54:51;7.60;99.90
23335;DHT22;11839;48.598;8.870;2023-12-22T01:57:20;7.70;99.90
23335;DHT22;11839;48.598;8.870;2023-12-22T01:59:48;7.70;99.90
23335;DHT22;11839;48.598;8.870;2023-12-22T02:02:16;7.50;99.90
23335;DHT22;11839;48.598;8.870;2023-12-22T02:04:43;7.50;99.90
23335;DHT22;11839;48.598;8.870;2023-12-22T02:07:11;7.50;99.90
23335;DHT22;11839;48.598;8.870;2023-12-22T02:09:38;7.50;99.90
23335;DHT22;11839;48.598;8.870;2023-12-22T02:12:07;7.60;99.90
23335;DHT22;11839;48.598;8.870;2023-12-22T02:14:34;7.70;99.90
23335;DHT22;11839;48.598;8.870;2023-12-22T02:17:07;7.70;99.90
23335;DHT22;11839;48.598;8.870;2023-12-22T02:19:41;7.70;99.90
23335;DHT22;11839;48.598;8.870;2023-12-22T02:22:10;7.80;99.90
23335;DHT22;11839;48.598;8.870;2023-12-22T02:24:39;8.00;99.90
23335;DHT22;11839;48.598;8.870;2023-12-22T02:27:14;8.00;99.90
23335;DHT22;11839;48.598;8.870;2023-12-22T02:29:46;8.00;99.90
23335;DHT22;11839;48.598;8.870;2023-12-22T02:32:21;8.00;99.90
23335;DHT22;11839;48.598;8.870;2023-12-22T02:34:51;8.00;99.90
23335;DHT22;11839;48.598;8.870;2023-12-22T02:37:20;8.20;99.90
23335;DHT22;11839;48.598;8.870;2023-12-22T02:39:49;8.20;99.90
23335;DHT22;11839;48.598;8.870;2023-12-22T02:42:17;8.20;99.90
23335;DHT22;11839;48.598;8.870;2023-12-22T02:44:45;8.30;99.90
23335;DHT22;11839;48.598;8.870;2023-12-22T02:47:12;8.40;99.90
23335;DHT22;11839;48.598;8.870;2023-12-22T02:49:39;8.40;99.90
23335;DHT22;11839;48.598;8.870;2023-12-22T02:52:05;8.30;99.90
23335;DHT22;11839;48.598;8.870;2023-12-22T02:54:32;8.10;99.90
23335;DHT22;11839;48.598;8.870;2023-12-22T02:57:01;7.90;99.90
23335;DHT22;11839;48.598;8.870;2023-12-22T02:59:28;7.70;99.90
23335;DHT22;11839;48.598;8.870;2023-12-22T03:01:54;7.80;99.90
23335;DHT22;11839;48.598;8.870;2023-12-22T03:04:21;7.90;99.90
23335;DHT22;11839;48.598;8.870;2023-12-22T03:06:48;7.90;99.90
23335;DHT22;11839;48.598;8.870;2023-12-22T03:09:15;8.10;99.90
23335;DHT22;11839;48.598;8.870;2023-12-22T03:11:41;8.20;99.90
23335;DHT22;11839;48.598;8.870;2023-12-22T03:14:10;8.30;99.90
23335;DHT22;11839;48.598;8.870;2023-12-22T03:16:36;8.50;99.90
23335;DHT22;11839;48.598;8.870;2023-12-22T03:19:03;8.30;99.90
23335;DHT22;11839;48.598;8.870;2023-12-22T03:21:30;8.10;99.90
23335;DHT22;11839;48.598;8.870;2023-12-22T03:23:57;8.30;99.90
23335;DHT22;11839;48.598;8.870;2023-12-22T03:26:26;8.10;99.90
23335;DHT22;11839;48.598;8.870;2023-12-22T03:28:52;8.10;99.90
23335;DHT22;11839;48.598;8.870;2023-12-22T03:31:20;8.10;99.90
23335;DHT22;11839;48.598;8.870;2023-12-22T03:33:47;8.20;99.90
23335;DHT22;11839;48.598;8.870;2023-12-22T03:36:14;8.10;99.90
23335;DHT22;11839;48.598;8.870;2023-12-22T03:38:41;8.10;99.90
23335;DHT22;11839;48.598;8.870;2023-12-22T03:41:07;8.30;99.90
23335;DHT22;11839;48.598;8.870;2023-12-22T03:43:33;8.40;99.90
23335;DHT22;11839;48.598;8.870;2023-12-22T03:46:00;8.50;99.90
23335;DHT22;11839;48.598;8.870;2023-12-22T03:48:28;8.50;99.90
23335;DHT22;11839;48.598;8.870;2023-12-22T03:50:55;8.50;99.90
23335;DHT22;11839;48.598;8.870;2023-12-22T03:53:21;8.50;99.90
23335;DHT22;11839;48.598;8.870;2023-12-22T03:55:48;8.70;99.90
23335;DHT22;11839;48.598;8.870;2023-12-22T03:58:15;8.50;99.90
23335;DHT22;11839;48.598;8.870;2023-12-22T04:00:42;8.30;99.90
23335;DHT22;11839;48.598;8.870;2023-12-22T04:03:09;8.50;99.90
23335;DHT22;11839;48.598;8.870;2023-12-22T04:05:37;8.60;99.90
23335;DHT22;11839;48.598;8.870;2023-12-22T04:08:04;8.80;99.90
23335;DHT22;11839;48.598;8.870;2023-12-22T04:10:31;8.60;99.90
23335;DHT22;11839;48.598;8.870;2023-12-22T04:12:58;8.70;99.90
23335;DHT22;11839;48.598;8.870;2023-12-22T04:15:25;8.50;99.90
23335;DHT22;11839;48.598;8.870;2023-12-22T04:17:52;8.40;99.90
23335;DHT22;11839;48.598;8.870;2023-12-22T04:20:19;8.50;99.90
23335;DHT22;11839;48.598;8.870;2023-12-22T04:22:47;8.50;99.90
23335;DHT22;11839;48.598;8.870;2023-12-22T04:25:14;8.50;99.90
23335;DHT22;11839;48.598;8.870;2023-12-22T04:27:41;8.40;99.90
23335;DHT22;11839;48.598;8.870;2023-12-22T04:30:09;8.40;99.90
23335;DHT22;11839;48.598;8.870;2023-12-22T04:32:36;8.40;99.90
23335;DHT22;11839;48.598;8.870;2023-12-22T04:35:03;8.30;99.90
23335;DHT22;11839;48.598;8.870;2023-12-22T04:37:30;8.40;99.90
23335;DHT22;11839;48.598;8.870;2023-12-22T04:39:58;8.10;99.90
23335;DHT22;11839;48.598;8.870;2023-12-22T04:42:25;8.10;99.90
23335;DHT22;11839;48.598;8.870;2023-12-22T04:44:52;8.20;99.90
23335;DHT22;11839;48.598;8.870;2023-12-22T04:47:19;8.20;99.90
23335;DHT22;11839;48.598;8.870;2023-12-22T04:49:46;8.00;99.90
23335;DHT22;11839;48.598;8.870;2023-12-22T04:52:13;8.10;99.90
23335;DHT22;11839;48.598;8.870;2023-12-22T04:54:39;8.10;99.90
23335;DHT22;11839;48.598;8.870;2023-12-22T04:57:07;7.90;99.90
23335;DHT22;11839;48.598;8.870;2023-12-22T04:59:34;7.80;99.90
23335;DHT22;11839;48.598;8.870;2023-12-22T05:02:01;7.80;99.90
23335;DHT22;11839;48.598;8.870;2023-12-22T05:04:28;7.90;99.90
23335;DHT22;11839;48.598;8.870;2023-12-22T05:06:55;7.90;99.90
23335;DHT22;11839;48.598;8.870;2023-12-22T05:09:21;8.00;99.90
23335;DHT22;11839;48.598;8.870;2023-12-22T05:11:50;7.80;99.90
23335;DHT22;11839;48.598;8.870;2023-12-22T05:14:18;8.00;99.90
23335;DHT22;11839;48.598;8.870;2023-12-22T05:16:45;8.10;99.90
23335;DHT22;11839;48.598;8.870;2023-12-22T05:19:12;8.20;99.90
23335;DHT22;11839;48.598;8.870;2023-12-22T05:21:39;8.40;99.90
23335;DHT22;11839;48.598;8.870;2023-12-22T05:24:05;8.40;99.90
23335;DHT22;11839;48.598;8.870;2023-12-22T05:26:32;8.50;99.90
23335;DHT22;11839;48.598;8.870;2023-12-22T05:28:59;8.50;99.90
23335;DHT22;11839;48.598;8.870;2023-12-22T05:31:27;8.50;99.90
23335;DHT22;11839;48.598;8.870;2023-12-22T05:33:54;8.50;99.90
23335;DHT22;11839;48.598;8.870;2023-12-22T05:36:21;8.60;99.90
23335;DHT22;11839;48.598;8.870;2023-12-22T05:38:48;8.70;99.90
23335;DHT22;11839;48.598;8.870;2023-12-22T05:41:14;8.80;99.90
23335;DHT22;11839;48.598;8.870;2023-12-22T05:43:41;8.70;99.90
23335;DHT22;11839;48.598;8.870;2023-12-22T05:46:08;8.70;99.90
23335;DHT22;11839;48.598;8.870;2023-12-22T05:48:37;8.70;99.90
23335;DHT22;11839;48.598;8.870;2023-12-22T05:51:04;8.70;99.90
23335;DHT22;11839;48.598;8.870;2023-12-22T05:53:33;8.80;99.90
23335;DHT22;11839;48.598;8.870;2023-12-22T05:55:59;8.70;99.90
23335;DHT22;11839;48.598;8.870;2023-12-22T05:58:26;8.70;99.90
23335;DHT22;11839;48.598;8.870;2023-12-22T06:00:53;8.60;99.90
23335;DHT22;11839;48.598;8.870;2023-12-22T06:03:20;8.70;99.90
23335;DHT22;11839;48.598;8.870;2023-12-22T06:05:48;8.70;99.90
23335;DHT22;11839;48.598;8.870;2023-12-22T06:08:15;8.80;99.90
23335;DHT22;11839;48.598;8.870;2023-12-22T06:10:41;8.90;99.90
23335;DHT22;11839;48.598;8.870;2023-12-22T06:13:08;8.60;99.90
23335;DHT22;11839;48.598;8.870;2023-12-22T06:15:35;8.70;99.90
23335;DHT22;11839;48.598;8.870;2023-12-22T06:18:02;8.60;99.90
23335;DHT22;11839;48.598;8.870;2023-12-22T06:20:29;8.40;99.90
23335;DHT22;11839;48.598;8.870;2023-12-22T06:22:57;8.30;99.90
23335;DHT22;11839;48.598;8.870;2023-12-22T06:25:23;8.00;99.90
23335;DHT22;11839;48.598;8.870;2023-12-22T06:27:50;7.60;99.90
23335;DHT22;11839;48.598;8.870;2023-12-22T06:30:17;7.20;99.90
23335;DHT22;11839;48.598;8.870;2023-12-22T06:32:44;7.00;99.90
23335;DHT22;11839;48.598;8.870;2023-12-22T06:35:10;7.10;99.90
23335;DHT22;11839;48.598;8.870;2023-12-22T06:37:37;7.10;99.90
23335;DHT22;11839;48.598;8.870;2023-12-22T06:40:07;7.20;99.90
23335;DHT22;11839;48.598;8.870;2023-12-22T06:42:33;7.40;99.90
23335;DHT22;11839;48.598;8.870;2023-12-22T06:45:00;7.30;99.90
23335;DHT22;11839;48.598;8.870;2023-12-22T06:47:27;7.40;99.90
23335;DHT22;11839;48.598;8.870;2023-12-22T06:49:54;7.60;99.90
23335;DHT22;11839;48.598;8.870;2023-12-22T06:52:20;7.80;99.90
23335;DHT22;11839;48.598;8.870;2023-12-22T06:54:47;8.00;99.90
23335;DHT22;11839;48.598;8.870;2023-12-22T06:57:15;8.10;99.90
23335;DHT22;11839;48.598;8.870;2023-12-22T06:59:43;8.30;99.90
23335;DHT22;11839;48.598;8.870;2023-12-22T07:02:09;8.40;99.90
23335;DHT22;11839;48.598;8.870;2023-12-22T07:05:02;8.50;99.90
23335;DHT22;11839;48.598;8.870;2023-12-22T07:07:32;8.50;99.90
23335;DHT22;11839;48.598;8.870;2023-12-22T07:09:59;8.20;99.90
23335;DHT22;11839;48.598;8.870;2023-12-22T07:12:27;8.00;99.90
23335;DHT22;11839;48.598;8.870;2023-12-22T07:14:54;8.10;99.90
23335;DHT22;11839;48.598;8.870;2023-12-22T07:17:21;8.00;99.90
23335;DHT22;11839;48.598;8.870;2023-12-22T07:19:48;8.30;99.90
23335;DHT22;11839;48.598;8.870;2023-12-22T07:22:18;8.20;99.90
23335;DHT22;11839;48.598;8.870;2023-12-22T07:24:45;8.30;99.90
23335;DHT22;11839;48.598;8.870;2023-12-22T07:27:12;8.50;99.90
23335;DHT22;11839;48.598;8.870;2023-12-22T07:29:41;8.60;99.90
23335;DHT22;11839;48.598;8.870;2023-12-22T07:32:08;8.70;99.90
23335;DHT22;11839;48.598;8.870;2023-12-22T07:34:35;8.40;99.90
23335;DHT22;11839;48.598;8.870;2023-12-22T07:37:01;8.50;99.90
23335;DHT22;11839;48.598;8.870;2023-12-22T07:39:29;8.40;99.90
23335;DHT22;11839;48.598;8.870;2023-12-22T07:41:55;8.50;99.90
23335;DHT22;11839;48.598;8.870;2023-12-22T07:44:22;8.50;99.90
23335;DHT22;11839;48.598;8.870;2023-12-22T07:46:57;8.30;99.90
23335;DHT22;11839;48.598;8.870;2023-12-22T07:49:25;8.60;99.90
23335;DHT22;11839;48.598;8.870;2023-12-22T07:51:52;9.00;99.90
23335;DHT22;11839;48.598;8.870;2023-12-22T07:54:19;9.00;99.90
23335;DHT22;11839;48.598;8.870;2023-12-22T07:56:46;8.70;99.90
23335;DHT22;11839;48.598;8.870;2023-12-22T07:59:13;8.60;99.90
23335;DHT22;11839;48.598;8.870;2023-12-22T08:01:41;8.50;99.90
23335;DHT22;11839;48.598;8.870;2023-12-22T08:04:14;8.70;99.90
23335;DHT22;11839;48.598;8.870;2023-12-22T08:06:42;8.70;99.90
23335;DHT22;11839;48.598;8.870;2023-12-22T08:09:09;9.00;99.90
23335;DHT22;11839;48.598;8.870;2023-12-22T08:11:36;8.90;99.90
23335;DHT22;11839;48.598;8.870;2023-12-22T08:14:06;8.90;99.90
23335;DHT22;11839;48.598;8.870;2023-12-22T08:16:32;8.90;99.90
23335;DHT22;11839;48.598;8.870;2023-12-22T08:18:59;9.10;99.90
23335;DHT22;11839;48.598;8.870;2023-12-22T08:21:27;8.90;99.90
23335;DHT22;11839;48.598;8.870;2023-12-22T08:23:54;9.10;99.90
23335;DHT22;11839;48.598;8.870;2023-12-22T08:26:21;9.00;99.90
23335;DHT22;11839;48.598;8.870;2023-12-22T08:28:48;8.70;99.90
23335;DHT22;11839;48.598;8.870;2023-12-22T08:31:14;8.60;99.90
23335;DHT22;11839;48.598;8.870;2023-12-22T08:33:41;8.70;99.90
23335;DHT22;11839;48.598;8.870;2023-12-22T08:36:09;8.50;99.90
23335;DHT22;11839;48.598;8.870;2023-12-22T08:38:37;8.70;99.90
23335;DHT22;11839;48.598;8.870;2023-12-22T08:41:06;8.50;99.90
23335;DHT22;11839;48.598;8.870;2023-12-22T08:43:33;8.60;99.90
23335;DHT22;11839;48.598;8.870;2023-12-22T08:46:00;8.40;99.90
23335;DHT22;11839;48.598;8.870;2023-12-22T08:48:26;8.50;99.90
23335;DHT22;11839;48.598;8.870;2023-12-22T08:50:53;8.70;99.90
23335;DHT22;11839;48.598;8.870;2023-12-22T08:53:20;8.90;99.90
23335;DHT22;11839;48.598;8.870;2023-12-22T08:55:48;8.80;99.90
23335;DHT22;11839;48.598;8.870;2023-12-22T08:58:15;9.00;99.90
23335;DHT22;11839;48.598;8.870;2023-12-22T09:00:42;9.00;99.90
23335;DHT22;11839;48.598;8.870;2023-12-22T09:03:08;9.00;99.90
23335;DHT22;11839;48.598;8.870;2023-12-22T09:05:35;9.10;99.90
23335;DHT22;11839;48.598;8.870;2023-12-22T09:08:02;9.10;99.90
23335;DHT22;11839;48.598;8.870;2023-12-22T09:10:29;8.90;99.90
23335;DHT22;11839;48.598;8.870;2023-12-22T09:12:58;8.90;99.90
23335;DHT22;11839;48.598;8.870;2023-12-22T09:15:25;8.60;99.90
23335;DHT22;11839;48.598;8.870;2023-12-22T09:17:53;8.50;99.90
23335;DHT22;11839;48.598;8.870;2023-12-22T09:20:21;8.50;99.90
23335;DHT22;11839;48.598;8.870;2023-12-22T09:22:48;8.60;99.90
23335;DHT22;11839;48.598;8.870;2023-12-22T09:25:15;8.60;99.90
23335;DHT22;11839;48.598;8.870;2023-12-22T09:27:42;8.50;99.90
23335;DHT22;11839;48.598;8.870;2023-12-22T09:30:11;8.60;99.90
23335;DHT22;11839;48.598;8.870;2023-12-22T09:32:37;8.60;99.90
23335;DHT22;11839;48.598;8.870;2023-12-22T09:35:04;8.60;99.90
23335;DHT22;11839;48.598;8.870;2023-12-22T09:37:31;8.50;99.90
23335;DHT22;11839;48.598;8.870;2023-12-22T09:39:58;8.60;99.90
23335;DHT22;11839;48.598;8.870;2023-12-22T09:42:26;8.80;99.90
23335;DHT22;11839;48.598;8.870;2023-12-22T09:44:53;8.80;99.90
23335;DHT22;11839;48.598;8.870;2023-12-22T09:47:24;8.60;99.90
23335;DHT22;11839;48.598;8.870;2023-12-22T09:49:54;8.60;99.90
23335;DHT22;11839;48.598;8.870;2023-12-22T09:52:22;8.70;99.90
23335;DHT22;11839;48.598;8.870;2023-12-22T09:54:49;8.70;99.90
23335;DHT22;11839;48.598;8.870;2023-12-22T09:57:17;8.90;99.90
23335;DHT22;11839;48.598;8.870;2023-12-22T09:59:44;9.00;99.90
23335;DHT22;11839;48.598;8.870;2023-12-22T10:02:11;8.90;99.90
23335;DHT22;11839;48.598;8.870;2023-12-22T10:04:39;8.80;99.90
23335;DHT22;11839;48.598;8.870;2023-12-22T10:07:06;8.90;99.90
23335;DHT22;11839;48.598;8.870;2023-12-22T10:09:35;9.00;99.90
23335;DHT22;11839;48.598;8.870;2023-12-22T10:12:03;9.10;99.90
23335;DHT22;11839;48.598;8.870;2023-12-22T10:14:31;9.00;99.90
23335;DHT22;11839;48.598;8.870;2023-12-22T10:17:01;9.20;99.90
23335;DHT22;11839;48.598;8.870;2023-12-22T10:19:28;9.10;99.90
23335;DHT22;11839;48.598;8.870;2023-12-22T10:21:56;9.00;99.90
23335;DHT22;11839;48.598;8.870;2023-12-22T10:24:39;9.00;99.90
23335;DHT22;11839;48.598;8.870;2023-12-22T10:27:08;9.30;99.90
23335;DHT22;11839;48.598;8.870;2023-12-22T10:29:35;9.40;99.90
23335;DHT22;11839;48.598;8.870;2023-12-22T10:32:03;9.30;99.90
23335;DHT22;11839;48.598;8.870;2023-12-22T10:34:30;9.40;99.90
23335;DHT22;11839;48.598;8.870;2023-12-22T10:36:59;9.40;99.90
23335;DHT22;11839;48.598;8.870;2023-12-22T10:39:27;9.50;99.90
23335;DHT22;11839;48.598;8.870;2023-12-22T10:41:55;9.50;99.90
23335;DHT22;11839;48.598;8.870;2023-12-22T10:44:24;9.50;99.90
23335;DHT22;11839;48.598;8.870;2023-12-22T10:46:51;9.40;99.90
23335;DHT22;11839;48.598;8.870;2023-12-22T10:49:18;9.30;99.90
23335;DHT22;11839;48.598;8.870;2023-12-22T10:51:45;9.10;99.90
23335;DHT22;11839;48.598;8.870;2023-12-22T10:54:13;9.00;99.90
23335;DHT22;11839;48.598;8.870;2023-12-22T10:56:40;9.00;99.90
23335;DHT22;11839;48.598;8.870;2023-12-22T10:59:07;9.00;99.90
23335;DHT22;11839;48.598;8.870;2023-12-22T11:01:36;9.40;99.90
23335;DHT22;11839;48.598;8.870;2023-12-22T11:04:06;9.70;99.90
23335;DHT22;11839;48.598;8.870;2023-12-22T11:06:34;9.90;99.90
23335;DHT22;11839;48.598;8.870;2023-12-22T11:09:04;9.40;99.90
23335;DHT22;11839;48.598;8.870;2023-12-22T11:11:37;9.40;99.90
23335;DHT22;11839;48.598;8.870;2023-12-22T11:14:05;9.50;99.90
23335;DHT22;11839;48.598;8.870;2023-12-22T11:16:33;9.70;99.90
23335;DHT22;11839;48.598;8.870;2023-12-22T11:19:01;9.70;99.90
23335;DHT22;11839;48.598;8.870;2023-12-22T11:21:28;9.80;99.90
23335;DHT22;11839;48.598;8.870;2023-12-22T11:23:55;9.50;99.90
23335;DHT22;11839;48.598;8.870;2023-12-22T11:26:23;9.40;99.90
23335;DHT22;11839;48.598;8.870;2023-12-22T11:28:52;9.60;99.90
23335;DHT22;11839;48.598;8.870;2023-12-22T11:31:19;9.90;99.90
23335;DHT22;11839;48.598;8.870;2023-12-22T11:33:48;10.10;99.90
23335;DHT22;11839;48.598;8.870;2023-12-22T11:36:15;9.80;99.90
23335;DHT22;11839;48.598;8.870;2023-12-22T11:38:44;9.70;99.90
23335;DHT22;11839;48.598;8.870;2023-12-22T11:41:14;9.80;99.90
23335;DHT22;11839;48.598;8.870;2023-12-22T11:43:42;9.80;99.90
23335;DHT22;11839;48.598;8.870;2023-12-22T11:46:11;9.50;99.90
23335;DHT22;11839;48.598;8.870;2023-12-22T11:48:38;9.50;99.90
23335;DHT22;11839;48.598;8.870;2023-12-22T11:51:12;9.50;99.90
23335;DHT22;11839;48.598;8.870;2023-12-22T11:53:39;9.50;99.90
23335;DHT22;11839;48.598;8.870;2023-12-22T11:56:07;9.60;99.90
23335;DHT22;11839;48.598;8.870;2023-12-22T11:58:38;9.60;99.90
23335;DHT22;11839;48.598;8.870;2023-12-22T12:01:07;9.70;99.90
23335;DHT22;11839;48.598;8.870;2023-12-22T12:03:38;9.60;99.90
23335;DHT22;11839;48.598;8.870;2023-12-22T12:06:17;9.70;99.90
23335;DHT22;11839;48.598;8.870;2023-12-22T12:08:48;9.70;99.90
23335;DHT22;11839;48.598;8.870;2023-12-22T12:11:16;9.60;99.90
23335;DHT22;11839;48.598;8.870;2023-12-22T12:13:44;9.60;99.90
23335;DHT22;11839;48.598;8.870;2023-12-22T12:16:11;9.60;99.90
23335;DHT22;11839;48.598;8.870;2023-12-22T12:18:40;9.30;99.90
23335;DHT22;11839;48.598;8.870;2023-12-22T12:21:08;9.30;99.90
23335;DHT22;11839;48.598;8.870;2023-12-22T12:23:35;9.30;99.90
23335;DHT22;11839;48.598;8.870;2023-12-22T12:26:03;9.30;99.90
23335;DHT22;11839;48.598;8.870;2023-12-22T12:28:31;9.10;99.90
23335;DHT22;11839;48.598;8.870;2023-12-22T12:30:59;8.90;99.90
23335;DHT22;11839;48.598;8.870;2023-12-22T12:33:27;8.90;99.90
23335;DHT22;11839;48.598;8.870;2023-12-22T12:35:56;9.10;99.90
23335;DHT22;11839;48.598;8.870;2023-12-22T12:38:35;9.20;99.90
23335;DHT22;11839;48.598;8.870;2023-12-22T12:41:04;9.20;99.90
23335;DHT22;11839;48.598;8.870;2023-12-22T12:43:31;9.30;99.90
23335;DHT22;11839;48.598;8.870;2023-12-22T12:46:03;9.30;99.90
23335;DHT22;11839;48.598;8.870;2023-12-22T12:48:30;9.40;99.90
23335;DHT22;11839;48.598;8.870;2023-12-22T12:51:03;9.40;99.90
23335;DHT22;11839;48.598;8.870;2023-12-22T12:53:30;9.30;99.90
23335;DHT22;11839;48.598;8.870;2023-12-22T12:55:58;9.40;99.90
23335;DHT22;11839;48.598;8.870;2023-12-22T12:58:28;9.50;99.90
23335;DHT22;11839;48.598;8.870;2023-12-22T13:01:04;9.50;99.90
23335;DHT22;11839;48.598;8.870;2023-12-22T13:03:31;9.50;99.90
23335;DHT22;11839;48.598;8.870;2023-12-22T13:06:07;9.60;99.90
23335;DHT22;11839;48.598;8.870;2023-12-22T13:08:34;9.50;99.90
23335;DHT22;11839;48.598;8.870;2023-12-22T13:11:01;9.60;99.90
23335;DHT22;11839;48.598;8.870;2023-12-22T13:13:28;9.60;99.90
23335;DHT22;11839;48.598;8.870;2023-12-22T13:15:55;9.80;99.90
23335;DHT22;11839;48.598;8.870;2023-12-22T13:18:22;10.00;99.90
23335;DHT22;11839;48.598;8.870;2023-12-22T13:20:49;9.80;99.90
23335;DHT22;11839;48.598;8.870;2023-12-22T13:23:18;10.00;99.90
23335;DHT22;11839;48.598;8.870;2023-12-22T13:25:45;10.10;99.90
23335;DHT22;11839;48.598;8.870;2023-12-22T13:28:12;9.90;99.90
23335;DHT22;11839;48.598;8.870;2023-12-22T13:30:39;9.90;99.90
23335;DHT22;11839;48.598;8.870;2023-12-22T13:33:07;10.10;99.90
23335;DHT22;11839;48.598;8.870;2023-12-22T13:35:34;10.10;99.90
23335;DHT22;11839;48.598;8.870;2023-12-22T13:38:04;10.10;99.90
23335;DHT22;11839;48.598;8.870;2023-12-22T13:40:33;10.00;99.90
23335;DHT22;11839;48.598;8.870;2023-12-22T13:43:01;9.90;99.90
23335;DHT22;11839;48.598;8.870;2023-12-22T13:45:28;9.90;99.90
23335;DHT22;11839;48.598;8.870;2023-12-22T13:47:55;9.90;99.90
23335;DHT22;11839;48.598;8.870;2023-12-22T13:50:22;9.80;99.90
23335;DHT22;11839;48.598;8.870;2023-12-22T13:52:50;9.70;99.90
23335;DHT22;11839;48.598;8.870;2023-12-22T13:55:17;9.80;99.90
23335;DHT22;11839;48.598;8.870;2023-12-22T13:57:46;10.10;99.90
23335;DHT22;11839;48.598;8.870;2023-12-22T14:00:26;9.90;99.90
23335;DHT22;11839;48.598;8.870;2023-12-22T14:02:54;10.20;99.90
23335;DHT22;11839;48.598;8.870;2023-12-22T14:05:21;10.20;99.90
23335;DHT22;11839;48.598;8.870;2023-12-22T14:07:48;10.10;99.90
23335;DHT22;11839;48.598;8.870;2023-12-22T14:10:16;10.30;99.90
23335;DHT22;11839;48.598;8.870;2023-12-22T14:12:43;10.20;99.90
23335;DHT22;11839;48.598;8.870;2023-12-22T14:15:11;10.00;99.90
23335;DHT22;11839;48.598;8.870;2023-12-22T14:17:38;9.70;99.90
23335;DHT22;11839;48.598;8.870;2023-12-22T14:20:08;9.90;99.90
23335;DHT22;11839;48.598;8.870;2023-12-22T14:22:35;10.20;99.90
23335;DHT22;11839;48.598;8.870;2023-12-22T14:25:03;10.00;99.90
23335;DHT22;11839;48.598;8.870;2023-12-22T14:27:30;10.20;99.90
23335;DHT22;11839;48.598;8.870;2023-12-22T14:29:56;10.40;99.90
23335;DHT22;11839;48.598;8.870;2023-12-22T14:32:25;10.30;99.90
23335;DHT22;11839;48.598;8.870;2023-12-22T14:34:51;10.20;99.90
23335;DHT22;11839;48.598;8.870;2023-12-22T14:37:18;10.30;99.90
23335;DHT22;11839;48.598;8.870;2023-12-22T14:39:45;10.30;99.90
23335;DHT22;11839;48.598;8.870;2023-12-22T14:42:12;10.00;99.90
23335;DHT22;11839;48.598;8.870;2023-12-22T14:44:39;10.00;99.90
23335;DHT22;11839;48.598;8.870;2023-12-22T14:47:06;10.20;99.90
23335;DHT22;11839;48.598;8.870;2023-12-22T14:49:34;10.40;99.90
23335;DHT22;11839;48.598;8.870;2023-12-22T14:52:02;10.30;99.90
23335;DHT22;11839;48.598;8.870;2023-12-22T14:54:28;10.20;99.90
23335;DHT22;11839;48.598;8.870;2023-12-22T14:56:55;10.50;99.90
23335;DHT22;11839;48.598;8.870;2023-12-22T14:59:22;10.40;99.90
23335;DHT22;11839;48.598;8.870;2023-12-22T15:01:49;10.30;99.90
23335;DHT22;11839;48.598;8.870;2023-12-22T15:04:15;10.20;99.90
23335;DHT22;11839;48.598;8.870;2023-12-22T15:06:45;10.20;99.90
23335;DHT22;11839;48.598;8.870;2023-12-22T15:09:12;10.30;99.90
23335;DHT22;11839;48.598;8.870;2023-12-22T15:11:42;10.60;99.90
23335;DHT22;11839;48.598;8.870;2023-12-22T15:14:09;10.50;99.90
23335;DHT22;11839;48.598;8.870;2023-12-22T15:16:39;10.40;99.90
23335;DHT22;11839;48.598;8.870;2023-12-22T15:19:06;10.30;99.90
23335;DHT22;11839;48.598;8.870;2023-12-22T15:21:33;10.50;99.90
23335;DHT22;11839;48.598;8.870;2023-12-22T15:24:02;10.20;99.90
23335;DHT22;11839;48.598;8.870;2023-12-22T15:26:29;10.30;99.90
23335;DHT22;11839;48.598;8.870;2023-12-22T15:28:56;10.20;99.90
23335;DHT22;11839;48.598;8.870;2023-12-22T15:31:23;10.20;99.90
23335;DHT22;11839;48.598;8.870;2023-12-22T15:33:50;10.00;99.90
23335;DHT22;11839;48.598;8.870;2023-12-22T15:36:17;9.90;99.90
23335;DHT22;11839;48.598;8.870;2023-12-22T15:38:45;10.00;99.90
23335;DHT22;11839;48.598;8.870;2023-12-22T15:41:13;10.10;99.90
23335;DHT22;11839;48.598;8.870;2023-12-22T15:43:41;10.10;99.90
23335;DHT22;11839;48.598;8.870;2023-12-22T15:46:08;10.20;99.90
23335;DHT22;11839;48.598;8.870;2023-12-22T15:48:36;10.00;99.90